createdAt,value
2022-08-05T00:01:48.667Z,73
2022-08-05T00:02:56.452Z,74
2022-08-05T00:04:00.886Z,74
2022-08-05T00:06:22.306Z,74
2022-08-05T00:08:03.415Z,74
2022-08-05T00:09:37.740Z,74
2022-08-05T00:10:47.281Z,74
2022-08-05T00:12:02.682Z,74
2022-08-05T00:13:40.020Z,75
2022-08-05T00:14:56.115Z,75
2022-08-05T00:16:01.379Z,75
2022-08-05T00:17:03.697Z,75
2022-08-05T00:18:25.195Z,76
2022-08-05T00:20:03.405Z,76
2022-08-05T00:21:09.427Z,76
2022-08-05T00:22:12.704Z,76
2022-08-05T00:23:16.147Z,76
2022-08-05T00:24:32.107Z,77
2022-08-05T00:25:47.205Z,77
2022-08-05T00:26:55.760Z,76
2022-08-05T00:28:02.659Z,77
2022-08-05T00:29:05.565Z,77
2022-08-05T00:30:13.469Z,77
2022-08-05T00:32:10.106Z,77
2022-08-05T00:35:08.680Z,77
2022-08-05T00:37:14.564Z,77
2022-08-05T00:38:35.028Z,77
2022-08-05T00:39:59.675Z,77
2022-08-05T00:41:14.948Z,77
2022-08-05T00:42:33.385Z,78
2022-08-05T00:43:50.984Z,78
2022-08-05T00:44:55.659Z,78
2022-08-05T00:46:00.226Z,79
2022-08-05T00:47:16.838Z,79
2022-08-05T00:48:34.188Z,79
2022-08-05T00:49:54.554Z,78
2022-08-05T00:50:58.006Z,78
2022-08-05T00:52:00.347Z,77
2022-08-05T00:53:03.318Z,77
2022-08-05T00:55:05.796Z,77
2022-08-05T00:56:10.201Z,78
2022-08-05T00:57:59.925Z,78
2022-08-05T00:59:09.307Z,77
2022-08-05T01:00:20.453Z,77
2022-08-05T01:01:50.435Z,77
2022-08-05T01:02:55.218Z,77
2022-08-05T01:04:01.486Z,76
2022-08-05T01:05:15.987Z,76
2022-08-05T01:06:20.541Z,76
2022-08-05T01:07:35.601Z,77
2022-08-05T01:08:47.801Z,76
2022-08-05T01:09:56.924Z,77
2022-08-05T01:11:01.276Z,76
2022-08-05T01:12:19.916Z,76
2022-08-05T01:14:00.484Z,76
2022-08-05T01:15:05.956Z,77
2022-08-05T01:16:53.096Z,76
2022-08-05T01:17:56.410Z,76
2022-08-05T01:19:01.753Z,76
2022-08-05T01:20:05.849Z,76
2022-08-05T01:21:23.294Z,76
2022-08-05T01:22:40.581Z,76
2022-08-05T01:23:53.355Z,76
2022-08-05T01:24:59.148Z,76
2022-08-05T01:26:01.784Z,76
2022-08-05T01:27:23.409Z,76
2022-08-05T01:28:25.995Z,76
2022-08-05T01:29:35.850Z,76
2022-08-05T01:30:39.024Z,76
2022-08-05T01:31:47.131Z,76
2022-08-05T01:32:53.424Z,76
2022-08-05T01:33:59.275Z,75
2022-08-05T01:35:02.856Z,76
2022-08-05T01:37:02.470Z,75
2022-08-05T01:38:05.103Z,75
2022-08-05T01:39:09.848Z,75
2022-08-05T01:40:13.239Z,75
2022-08-05T01:41:25.965Z,75
2022-08-05T01:42:28.979Z,75
2022-08-05T01:43:33.623Z,75
2022-08-05T01:44:37.578Z,75
2022-08-05T01:45:58.034Z,75
2022-08-05T01:47:55.529Z,76
2022-08-05T01:49:23.473Z,76
2022-08-05T01:51:14.037Z,76
2022-08-05T01:52:19.879Z,75
2022-08-05T01:54:02.611Z,75
2022-08-05T01:55:09.756Z,75
2022-08-05T01:56:13.363Z,76
2022-08-05T01:59:18.125Z,77
2022-08-05T02:00:31.612Z,78
2022-08-05T02:01:41.135Z,78
2022-08-05T02:02:55.999Z,78
2022-08-05T02:04:00.437Z,79
2022-08-05T02:05:12.337Z,79
2022-08-05T02:06:39.834Z,78
2022-08-05T02:08:03.007Z,79
2022-08-05T02:09:06.983Z,78
2022-08-05T02:10:09.217Z,77
2022-08-05T02:11:34.374Z,78
2022-08-05T02:12:54.294Z,77
2022-08-05T02:13:57.884Z,78
2022-08-05T02:15:04.317Z,78
2022-08-05T02:16:16.327Z,78
2022-08-05T02:18:36.885Z,77
2022-08-05T02:19:48.957Z,77
2022-08-05T02:20:52.761Z,76
2022-08-05T02:22:00.838Z,76
2022-08-05T02:23:05.229Z,76
2022-08-05T02:24:18.710Z,77
2022-08-05T02:25:50.606Z,76
2022-08-05T02:26:56.264Z,77
2022-08-05T02:28:01.457Z,79
2022-08-05T02:30:01.492Z,78
2022-08-05T02:31:15.012Z,77
2022-08-05T02:32:32.689Z,77
2022-08-05T02:33:40.138Z,76
2022-08-05T02:34:55.754Z,77
2022-08-05T02:36:17.875Z,78
2022-08-05T02:37:25.713Z,78
2022-08-05T02:38:36.816Z,78
2022-08-05T02:39:52.409Z,79
2022-08-05T02:40:58.386Z,79
2022-08-05T02:42:36.840Z,79
2022-08-05T02:44:14.265Z,80
2022-08-05T02:45:25.707Z,80
2022-08-05T02:47:01.727Z,79
2022-08-05T02:48:15.683Z,79
2022-08-05T02:49:23.085Z,79
2022-08-05T02:50:29.907Z,78
2022-08-05T02:52:05.863Z,78
2022-08-05T02:53:20.167Z,77
2022-08-05T02:54:42.212Z,77
2022-08-05T02:56:02.747Z,77
2022-08-05T02:58:13.628Z,77
2022-08-05T02:59:19.319Z,78
2022-08-05T03:00:34.693Z,77
2022-08-05T03:01:44.951Z,78
2022-08-05T03:02:48.006Z,78
2022-08-05T03:04:15.972Z,77
2022-08-05T03:07:01.007Z,77
2022-08-05T03:08:12.065Z,78
2022-08-05T03:09:52.967Z,78
2022-08-05T03:12:02.294Z,77
2022-08-05T03:14:15.321Z,77
2022-08-05T03:15:20.343Z,76
2022-08-05T03:16:28.759Z,76
2022-08-05T03:17:45.797Z,76
2022-08-05T03:18:49.635Z,75
2022-08-05T03:19:51.699Z,76
2022-08-05T03:20:58.233Z,75
2022-08-05T03:22:18.808Z,76
2022-08-05T03:23:45.996Z,75
2022-08-05T03:24:53.562Z,75
2022-08-05T03:26:33.562Z,75
2022-08-05T03:28:01.728Z,75
2022-08-05T03:29:17.801Z,75
2022-08-05T03:30:35.083Z,75
2022-08-05T03:32:01.065Z,76
2022-08-05T03:33:03.734Z,76
2022-08-05T03:34:11.879Z,76
2022-08-05T03:35:14.181Z,76
2022-08-05T03:36:31.618Z,76
2022-08-05T03:37:47.667Z,76
2022-08-05T03:38:56.153Z,77
2022-08-05T03:40:05.402Z,77
2022-08-05T03:41:48.196Z,77
2022-08-05T03:43:15.853Z,77
2022-08-05T03:45:24.233Z,77
2022-08-05T03:46:33.374Z,76
2022-08-05T03:47:43.137Z,76
2022-08-05T03:48:48.405Z,77
2022-08-05T03:49:53.541Z,76
2022-08-05T03:56:06.463Z,77
2022-08-05T03:57:46.324Z,77
2022-08-05T03:58:52.426Z,76
2022-08-05T03:59:56.608Z,76
2022-08-05T04:01:01.147Z,76
2022-08-05T04:02:06.687Z,75
2022-08-05T04:03:30.342Z,75
2022-08-05T04:04:34.380Z,75
2022-08-05T04:05:43.010Z,75
2022-08-05T04:06:53.048Z,75
2022-08-05T04:08:00.486Z,74
2022-08-05T04:09:07.889Z,75
2022-08-05T04:10:18.492Z,74
2022-08-05T04:11:42.709Z,74
2022-08-05T04:12:59.372Z,74
2022-08-05T04:14:06.803Z,73
2022-08-05T04:15:17.305Z,73
2022-08-05T04:16:33.265Z,73
2022-08-05T04:18:01.450Z,73
2022-08-05T04:19:11.506Z,72
2022-08-05T04:20:23.450Z,73
2022-08-05T04:22:21.310Z,73
2022-08-05T04:24:22.642Z,73
2022-08-05T04:26:01.386Z,73
2022-08-05T04:27:09.013Z,74
2022-08-05T04:28:15.170Z,74
2022-08-05T04:29:21.000Z,75
2022-08-05T04:30:31.922Z,75
2022-08-05T04:31:40.249Z,75
2022-08-05T04:32:43.299Z,75
2022-08-05T04:34:42.778Z,75
2022-08-05T04:36:50.945Z,74
2022-08-05T04:38:07.699Z,73
2022-08-05T04:39:13.898Z,73
2022-08-05T04:40:20.302Z,73
2022-08-05T04:41:41.599Z,72
2022-08-05T04:42:54.288Z,71
2022-08-05T04:43:56.421Z,71
2022-08-05T04:45:03.510Z,71
2022-08-05T04:46:07.062Z,71
2022-08-05T04:47:21.010Z,71
2022-08-05T04:48:29.135Z,71
2022-08-05T04:50:12.424Z,71
2022-08-05T04:52:13.091Z,71
2022-08-05T04:53:17.048Z,71
2022-08-05T04:54:19.687Z,71
2022-08-05T04:56:37.886Z,71
2022-08-05T04:57:54.773Z,71
2022-08-05T04:58:57.427Z,71
2022-08-05T05:00:01.304Z,72
2022-08-05T05:01:08.092Z,73
2022-08-05T05:02:44.749Z,73
2022-08-05T05:03:48.323Z,74
2022-08-05T05:04:52.570Z,74
2022-08-05T05:06:58.249Z,75
2022-08-05T05:08:26.533Z,75
2022-08-05T05:09:39.096Z,75
2022-08-05T05:10:57.724Z,75
2022-08-05T05:12:06.704Z,76
2022-08-05T05:13:14.325Z,76
2022-08-05T05:14:32.399Z,76
2022-08-05T05:16:07.609Z,76
2022-08-05T05:17:10.242Z,77
2022-08-05T05:18:13.146Z,77
2022-08-05T05:19:47.837Z,77
2022-08-05T05:20:53.785Z,78
2022-08-05T05:22:27.020Z,78
2022-08-05T05:24:09.987Z,78
2022-08-05T05:25:18.177Z,79
2022-08-05T05:26:33.880Z,79
2022-08-05T05:27:57.568Z,79
2022-08-05T05:29:00.760Z,79
2022-08-05T05:30:34.368Z,79
2022-08-05T05:32:46.413Z,79
2022-08-05T05:34:03.565Z,79
2022-08-05T05:35:08.873Z,79
2022-08-05T05:36:16.655Z,79
2022-08-05T05:38:02.737Z,80
2022-08-05T05:39:20.482Z,80
2022-08-05T05:40:29.126Z,80
2022-08-05T05:41:42.934Z,80
2022-08-05T05:42:57.814Z,80
2022-08-05T05:44:02.200Z,80
2022-08-05T05:45:49.612Z,81
2022-08-05T05:46:52.692Z,81
2022-08-05T05:48:10.326Z,81
2022-08-05T05:49:24.292Z,81
2022-08-05T05:50:26.497Z,81
2022-08-05T05:51:51.324Z,81
2022-08-05T05:53:00.033Z,81
2022-08-05T05:54:03.568Z,81
2022-08-05T05:55:15.157Z,81
2022-08-05T05:56:35.907Z,81
2022-08-05T05:57:53.659Z,82
2022-08-05T05:58:56.915Z,82
2022-08-05T06:00:11.358Z,82
2022-08-05T06:01:16.862Z,82
2022-08-05T06:02:38.564Z,82
2022-08-05T06:04:04.990Z,82
2022-08-05T06:05:17.817Z,82
2022-08-05T06:06:23.030Z,82
2022-08-05T06:08:04.243Z,82
2022-08-05T06:09:09.278Z,82
2022-08-05T06:11:14.578Z,82
2022-08-05T06:12:20.761Z,82
2022-08-05T06:13:55.965Z,82
2022-08-05T06:15:01.591Z,82
2022-08-05T06:16:37.835Z,82
2022-08-05T06:17:55.633Z,82
2022-08-05T06:19:08.175Z,82
2022-08-05T06:20:37.597Z,82
2022-08-05T06:21:54.843Z,82
2022-08-05T06:22:59.272Z,82
2022-08-05T06:24:15.111Z,83
2022-08-05T06:26:25.372Z,82
2022-08-05T06:28:28.736Z,82
2022-08-05T06:30:21.154Z,82
2022-08-05T06:31:34.339Z,81
2022-08-05T06:32:40.802Z,82
2022-08-05T06:34:11.042Z,82
2022-08-05T06:36:10.982Z,82
2022-08-05T06:38:10.025Z,83
2022-08-05T06:39:15.198Z,82
2022-08-05T06:40:33.445Z,81
2022-08-05T06:41:44.720Z,81
2022-08-05T06:42:53.778Z,81
2022-08-05T06:44:02.083Z,81
2022-08-05T06:45:44.238Z,81
2022-08-05T06:48:59.103Z,80
2022-08-05T06:50:20.676Z,80
2022-08-05T06:51:31.796Z,80
2022-08-05T06:53:03.481Z,80
2022-08-05T06:54:31.383Z,80
2022-08-05T06:55:37.592Z,79
2022-08-05T06:58:35.535Z,80
2022-08-05T06:59:58.835Z,80
2022-08-05T07:01:03.441Z,80
2022-08-05T07:02:07.061Z,79
2022-08-05T07:03:11.662Z,79
2022-08-05T07:04:19.850Z,79
2022-08-05T07:05:42.260Z,79
2022-08-05T07:06:51.049Z,79
2022-08-05T07:07:54.095Z,79
2022-08-05T07:09:04.705Z,78
2022-08-05T07:10:08.398Z,78
2022-08-05T07:11:16.708Z,78
2022-08-05T07:12:28.490Z,77
2022-08-05T07:14:01.138Z,76
2022-08-05T07:15:09.446Z,76
2022-08-05T07:18:19.543Z,76
2022-08-05T07:20:38.835Z,76
2022-08-05T07:22:05.344Z,76
2022-08-05T07:23:30.704Z,76
2022-08-05T07:24:54.309Z,75
2022-08-05T07:25:58.840Z,75
2022-08-05T07:27:09.734Z,74
2022-08-05T07:28:18.504Z,74
2022-08-05T07:30:34.132Z,73
2022-08-05T07:31:56.186Z,73
2022-08-05T07:32:59.163Z,73
2022-08-05T07:34:02.937Z,73
2022-08-05T07:36:22.417Z,73
2022-08-05T07:37:39.998Z,73
2022-08-05T07:38:56.013Z,73
2022-08-05T07:40:36.210Z,73
2022-08-05T07:42:16.536Z,73
2022-08-05T07:43:42.985Z,73
2022-08-05T07:44:49.044Z,74
2022-08-05T07:46:02.062Z,74
2022-08-05T07:47:27.073Z,73
2022-08-05T07:49:08.787Z,72
2022-08-05T07:50:18.104Z,72
2022-08-05T07:51:55.008Z,71
2022-08-05T07:52:58.774Z,70
2022-08-05T07:54:02.799Z,71
2022-08-05T07:57:18.259Z,71
2022-08-05T07:59:41.713Z,71
2022-08-05T08:00:52.015Z,70
2022-08-05T08:01:59.575Z,70
2022-08-05T08:03:21.726Z,70
2022-08-05T08:04:39.066Z,70
2022-08-05T08:05:50.728Z,70
2022-08-05T08:06:52.746Z,70
2022-08-05T08:08:01.444Z,70
2022-08-05T08:09:06.258Z,70
2022-08-05T08:10:09.933Z,71
2022-08-05T08:11:47.010Z,70
2022-08-05T08:14:04.218Z,71
2022-08-05T08:15:16.719Z,70
2022-08-05T08:17:54.249Z,70
2022-08-05T08:21:00.686Z,71
2022-08-05T08:22:27.367Z,71
2022-08-05T08:24:14.005Z,71
2022-08-05T08:26:04.912Z,71
2022-08-05T08:27:10.148Z,71
2022-08-05T08:30:18.375Z,71
2022-08-05T08:31:52.123Z,71
2022-08-05T08:32:55.445Z,72
2022-08-05T08:34:08.615Z,72
2022-08-05T08:35:15.040Z,73
2022-08-05T08:37:02.179Z,74
2022-08-05T08:38:08.635Z,75
2022-08-05T08:39:50.889Z,76
2022-08-05T08:40:57.081Z,77
2022-08-05T08:42:11.024Z,78
2022-08-05T08:45:57.804Z,80
2022-08-05T08:47:03.353Z,80
2022-08-05T08:52:14.738Z,83
2022-08-05T08:53:19.409Z,83
2022-08-05T08:54:28.104Z,84
2022-08-05T08:56:07.429Z,84
2022-08-05T08:57:14.181Z,86
2022-08-05T08:59:10.169Z,85
2022-08-05T09:00:38.310Z,86
2022-08-05T09:02:01.923Z,86
2022-08-05T09:03:04.215Z,86
2022-08-05T09:04:11.927Z,87
2022-08-05T09:06:12.912Z,88
2022-08-05T09:08:00.116Z,87
2022-08-05T09:09:03.125Z,88
2022-08-05T09:10:07.837Z,88
2022-08-05T09:11:15.225Z,88
2022-08-05T09:12:28.193Z,88
2022-08-05T09:15:06.675Z,88
2022-08-05T09:16:19.241Z,89
2022-08-05T09:17:53.245Z,89
2022-08-05T09:19:07.063Z,89
2022-08-05T09:20:38.949Z,89
2022-08-05T09:22:34.376Z,90
2022-08-05T09:23:44.714Z,90
2022-08-05T09:24:50.028Z,91
2022-08-05T09:26:09.777Z,91
2022-08-05T09:28:07.712Z,93
2022-08-05T09:29:32.139Z,92
2022-08-05T09:30:50.747Z,92
2022-08-05T09:32:54.062Z,92
2022-08-05T09:34:00.688Z,92
2022-08-05T09:35:05.264Z,92
2022-08-05T09:36:19.957Z,92
2022-08-05T09:38:30.076Z,92
2022-08-05T09:39:57.209Z,92
2022-08-05T09:41:01.237Z,91
2022-08-05T09:42:28.355Z,92
2022-08-05T09:43:43.028Z,92
2022-08-05T09:44:52.814Z,92
2022-08-05T09:47:21.717Z,92
2022-08-05T09:48:30.256Z,91
2022-08-05T09:50:04.502Z,91
2022-08-05T09:51:16.989Z,91
2022-08-05T09:52:26.087Z,91
2022-08-05T09:54:01.272Z,91
2022-08-05T09:56:12.804Z,90
2022-08-05T09:57:26.017Z,91
2022-08-05T09:58:31.127Z,91
2022-08-05T09:59:38.305Z,91
2022-08-05T10:00:41.463Z,91
2022-08-05T10:01:47.093Z,91
2022-08-05T10:02:50.291Z,90
2022-08-05T10:04:01.448Z,90
2022-08-05T10:05:14.661Z,90
2022-08-05T10:06:21.655Z,90
2022-08-05T10:08:38.799Z,90
2022-08-05T10:10:32.966Z,91
2022-08-05T10:11:37.700Z,92
2022-08-05T10:12:53.371Z,92
2022-08-05T10:14:00.054Z,93
2022-08-05T10:15:04.945Z,92
2022-08-05T10:16:14.717Z,92
2022-08-05T10:17:57.657Z,93
2022-08-05T10:19:12.761Z,93
2022-08-05T10:20:20.665Z,92
2022-08-05T10:21:41.829Z,93
2022-08-05T10:22:52.825Z,93
2022-08-05T10:24:11.318Z,93
2022-08-05T10:25:16.082Z,92
2022-08-05T10:26:33.998Z,92
2022-08-05T10:28:31.162Z,93
2022-08-05T10:33:03.742Z,92
2022-08-05T10:34:30.141Z,92
2022-08-05T10:35:52.578Z,92
2022-08-05T10:37:03.597Z,92
2022-08-05T10:38:12.925Z,93
2022-08-05T10:40:18.951Z,93
2022-08-05T10:41:48.159Z,94
2022-08-05T10:42:53.078Z,94
2022-08-05T10:44:00.853Z,93
2022-08-05T10:45:42.809Z,93
2022-08-05T10:46:45.835Z,94
2022-08-05T10:49:00.568Z,95
2022-08-05T10:50:38.323Z,95
2022-08-05T10:52:10.714Z,95
2022-08-05T10:53:24.067Z,95
2022-08-05T10:54:55.951Z,94
2022-08-05T10:56:26.920Z,94
2022-08-05T10:57:44.913Z,93
2022-08-05T10:58:56.090Z,93
2022-08-05T11:02:06.266Z,92
2022-08-05T11:03:52.783Z,93
2022-08-05T11:04:57.612Z,94
2022-08-05T11:06:05.364Z,93
2022-08-05T11:07:10.435Z,93
2022-08-05T11:08:41.099Z,93
2022-08-05T11:09:47.980Z,93
2022-08-05T11:11:16.620Z,94
2022-08-05T11:12:20.066Z,93
2022-08-05T11:13:29.067Z,92
2022-08-05T11:15:21.782Z,92
2022-08-05T11:18:06.059Z,92
2022-08-05T11:20:22.836Z,92
2022-08-05T11:21:50.735Z,92
2022-08-05T11:23:10.929Z,92
2022-08-05T11:24:32.397Z,92
2022-08-05T11:26:10.534Z,92
2022-08-05T11:27:13.672Z,92
2022-08-05T11:28:18.208Z,93
2022-08-05T11:29:23.498Z,92
2022-08-05T11:30:31.146Z,92
2022-08-05T11:32:02.281Z,92
2022-08-05T11:33:21.693Z,92
2022-08-05T11:34:34.019Z,93
2022-08-05T11:36:09.517Z,92
2022-08-05T11:38:51.984Z,93
2022-08-05T11:40:05.451Z,93
2022-08-05T11:42:05.266Z,93
2022-08-05T11:44:09.012Z,94
2022-08-05T11:46:35.539Z,96
2022-08-05T11:48:53.064Z,95
2022-08-05T11:49:58.740Z,93
2022-08-05T11:51:01.903Z,94
2022-08-05T11:52:13.718Z,93
2022-08-05T11:53:17.713Z,94
2022-08-05T11:54:34.459Z,93
2022-08-05T11:55:38.813Z,92
2022-08-05T11:56:42.825Z,91
2022-08-05T11:58:17.773Z,92
2022-08-05T11:59:28.666Z,91
2022-08-05T12:00:55.336Z,92
2022-08-05T12:01:59.622Z,91
2022-08-05T12:03:03.359Z,92
2022-08-05T12:04:05.681Z,92
2022-08-05T12:05:19.773Z,91
2022-08-05T12:06:34.977Z,91
2022-08-05T12:08:19.209Z,91
2022-08-05T12:09:54.860Z,90
2022-08-05T12:11:06.401Z,89
2022-08-05T12:12:10.876Z,89
2022-08-05T12:13:50.598Z,90
2022-08-05T12:14:58.131Z,89
2022-08-05T12:16:01.063Z,89
2022-08-05T12:18:13.249Z,89
2022-08-05T12:20:34.955Z,90
2022-08-05T12:21:40.435Z,88
2022-08-05T12:22:52.711Z,89
2022-08-05T12:24:04.679Z,88
2022-08-05T12:25:17.253Z,88
2022-08-05T12:26:29.089Z,89
2022-08-05T12:27:35.069Z,88
2022-08-05T12:28:56.223Z,88
2022-08-05T12:29:59.408Z,88
2022-08-05T12:31:06.053Z,89
2022-08-05T12:32:12.668Z,89
2022-08-05T12:33:43.404Z,88
2022-08-05T12:34:51.524Z,86
2022-08-05T12:35:54.327Z,87
2022-08-05T12:36:57.486Z,87
2022-08-05T12:38:03.904Z,86
2022-08-05T12:39:08.895Z,86
2022-08-05T12:40:30.911Z,86
2022-08-05T12:41:44.353Z,86
2022-08-05T12:42:50.125Z,87
2022-08-05T12:43:54.094Z,88
2022-08-05T12:44:57.789Z,88
2022-08-05T12:46:00.701Z,89
2022-08-05T12:47:04.214Z,88
2022-08-05T12:48:33.575Z,88
2022-08-05T12:50:11.402Z,89
2022-08-05T12:52:38.290Z,90
2022-08-05T12:53:59.987Z,90
2022-08-05T12:55:03.034Z,89
2022-08-05T12:56:40.436Z,90
2022-08-05T12:59:04.301Z,89
2022-08-05T13:02:59.131Z,91
2022-08-05T13:04:10.712Z,91
2022-08-05T13:05:15.129Z,91
2022-08-05T13:06:18.958Z,91
2022-08-05T13:08:01.810Z,91
2022-08-05T13:09:28.849Z,92
2022-08-05T13:10:32.217Z,93
2022-08-05T13:12:07.613Z,92
2022-08-05T13:14:15.185Z,88
2022-08-05T13:15:52.179Z,89
2022-08-05T13:16:59.225Z,90
2022-08-05T13:18:01.933Z,87
2022-08-05T13:19:05.055Z,87
2022-08-05T13:20:12.073Z,87
2022-08-05T13:21:14.661Z,88
2022-08-05T13:22:31.743Z,88
2022-08-05T13:23:53.278Z,88
2022-08-05T13:25:21.858Z,88
2022-08-05T13:27:04.556Z,90
2022-08-05T13:28:45.609Z,88
2022-08-05T13:30:40.295Z,88
2022-08-05T13:32:06.468Z,89
2022-08-05T13:34:27.146Z,88
2022-08-05T13:35:52.715Z,87
2022-08-05T13:37:09.733Z,87
2022-08-05T13:38:43.357Z,87
2022-08-05T13:40:52.481Z,87
2022-08-05T13:41:57.389Z,88
2022-08-05T13:43:01.129Z,88
2022-08-05T13:44:06.493Z,89
2022-08-05T13:45:22.065Z,88
2022-08-05T13:48:08.434Z,87
2022-08-05T13:50:17.245Z,88
2022-08-05T13:51:21.496Z,88
2022-08-05T13:52:36.262Z,88
2022-08-05T13:53:49.267Z,89
2022-08-05T13:55:01.884Z,88
2022-08-05T13:56:20.448Z,88
2022-08-05T13:57:51.661Z,87
2022-08-05T13:58:56.166Z,88
2022-08-05T14:00:30.087Z,87
2022-08-05T14:02:00.997Z,87
2022-08-05T14:03:04.477Z,86
2022-08-05T14:04:09.792Z,86
2022-08-05T14:06:27.179Z,85
2022-08-05T14:08:28.483Z,83
2022-08-05T14:09:47.835Z,84
2022-08-05T14:10:49.965Z,84
2022-08-05T14:12:33.570Z,84
2022-08-05T14:13:36.377Z,84
2022-08-05T14:14:39.842Z,84
2022-08-05T14:16:19.559Z,84
2022-08-05T14:17:23.185Z,84
2022-08-05T14:18:30.574Z,85
2022-08-05T14:20:07.714Z,85
2022-08-05T14:22:13.085Z,85
2022-08-05T14:23:37.229Z,85
2022-08-05T14:24:45.010Z,85
2022-08-05T14:26:00.152Z,86
2022-08-05T14:27:20.123Z,86
2022-08-05T14:28:29.150Z,86
2022-08-05T14:29:34.181Z,86
2022-08-05T14:30:37.360Z,86
2022-08-05T14:32:28.574Z,86
2022-08-05T14:34:02.051Z,87
2022-08-05T14:35:12.107Z,86
2022-08-05T14:36:14.437Z,86
2022-08-05T14:37:52.283Z,86
2022-08-05T14:39:03.278Z,86
2022-08-05T14:40:07.216Z,85
2022-08-05T14:41:15.134Z,85
2022-08-05T14:42:32.076Z,86
2022-08-05T14:44:22.495Z,85
2022-08-05T14:45:32.025Z,85
2022-08-05T14:46:36.344Z,85
2022-08-05T14:48:34.043Z,85
2022-08-05T14:50:19.916Z,85
2022-08-05T14:51:32.354Z,86
2022-08-05T14:53:00.513Z,86
2022-08-05T14:54:34.332Z,84
2022-08-05T14:55:56.525Z,84
2022-08-05T14:56:59.176Z,85
2022-08-05T14:58:14.850Z,85
2022-08-05T14:59:17.698Z,85
2022-08-05T15:00:32.761Z,85
2022-08-05T15:02:15.760Z,85
2022-08-05T15:03:23.924Z,85
2022-08-05T15:04:29.985Z,86
2022-08-05T15:06:16.544Z,86
2022-08-05T15:09:03.385Z,85
2022-08-05T15:10:11.704Z,83
2022-08-05T15:11:15.210Z,84
2022-08-05T15:12:19.134Z,84
2022-08-05T15:13:50.892Z,84
2022-08-05T15:14:57.040Z,85
2022-08-05T15:16:00.347Z,85
2022-08-05T15:17:44.257Z,86
2022-08-05T15:19:01.210Z,86
2022-08-05T15:20:04.019Z,86
2022-08-05T15:21:09.060Z,87
2022-08-05T15:22:12.241Z,85
2022-08-05T15:23:19.690Z,84
2022-08-05T15:24:23.466Z,84
2022-08-05T15:26:03.337Z,85
2022-08-05T15:27:10.268Z,86
2022-08-05T15:28:16.929Z,84
2022-08-05T15:29:23.164Z,84
2022-08-05T15:30:46.814Z,84
2022-08-05T15:31:56.935Z,85
2022-08-05T15:33:08.918Z,83
2022-08-05T15:34:35.195Z,82
2022-08-05T15:35:46.576Z,81
2022-08-05T15:36:53.527Z,85
2022-08-05T15:38:43.157Z,81
2022-08-05T15:41:24.924Z,84
2022-08-05T15:43:55.390Z,84
2022-08-05T15:44:58.086Z,84
2022-08-05T15:46:04.326Z,82
2022-08-05T15:47:07.892Z,80
2022-08-05T15:48:16.271Z,80
2022-08-05T15:49:59.810Z,83
2022-08-05T15:51:07.664Z,82
2022-08-05T15:52:59.560Z,81
2022-08-05T15:54:16.549Z,84
2022-08-05T15:56:05.679Z,86
2022-08-05T15:57:20.919Z,82
2022-08-05T15:58:24.617Z,85
2022-08-05T15:59:31.400Z,85
2022-08-05T16:01:18.564Z,84
2022-08-05T16:02:56.382Z,84
2022-08-05T16:04:02.100Z,85
2022-08-05T16:05:11.484Z,85
2022-08-05T16:06:20.877Z,84
2022-08-05T16:07:30.661Z,83
2022-08-05T16:08:36.408Z,84
2022-08-05T16:09:44.616Z,83
2022-08-05T16:10:48.354Z,83
2022-08-05T16:11:55.136Z,83
2022-08-05T16:12:59.871Z,83
2022-08-05T16:14:03.466Z,83
2022-08-05T16:15:06.068Z,83
2022-08-05T16:16:27.284Z,83
2022-08-05T16:17:33.323Z,83
2022-08-05T16:18:53.869Z,81
2022-08-05T16:20:13.013Z,83
2022-08-05T16:21:16.853Z,82
2022-08-05T16:22:35.472Z,82
2022-08-05T16:24:03.497Z,80
2022-08-05T16:25:58.071Z,77
2022-08-05T16:27:02.653Z,79
2022-08-05T16:28:11.275Z,78
2022-08-05T16:29:22.051Z,76
2022-08-05T16:30:32.227Z,78
2022-08-05T16:31:58.680Z,79
2022-08-05T16:33:00.963Z,80
2022-08-05T16:34:09.862Z,80
2022-08-05T16:35:30.868Z,77
2022-08-05T16:36:55.311Z,79
2022-08-05T16:38:28.730Z,81
2022-08-05T16:40:26.793Z,78
2022-08-05T16:42:29.210Z,81
2022-08-05T16:43:35.268Z,81
2022-08-05T16:44:44.685Z,81
2022-08-05T16:46:25.637Z,81
2022-08-05T16:48:02.874Z,81
2022-08-05T16:49:07.017Z,79
2022-08-05T16:50:11.060Z,78
2022-08-05T16:51:16.852Z,76
2022-08-05T16:52:21.766Z,77
2022-08-05T16:54:33.010Z,79
2022-08-05T16:55:48.232Z,76
2022-08-05T16:56:53.206Z,79
2022-08-05T16:58:09.811Z,77
2022-08-05T16:59:23.207Z,80
2022-08-05T17:00:40.237Z,80
2022-08-05T17:01:57.202Z,79
2022-08-05T17:03:21.080Z,79
2022-08-05T17:04:28.779Z,79
2022-08-05T17:05:32.556Z,80
2022-08-05T17:06:53.745Z,81
2022-08-05T17:07:57.290Z,81
2022-08-05T17:09:00.200Z,81
2022-08-05T17:10:04.282Z,81
2022-08-05T17:11:17.983Z,81
2022-08-05T17:12:54.169Z,82
2022-08-05T17:14:13.411Z,82
2022-08-05T17:16:33.191Z,83
2022-08-05T17:17:43.955Z,82
2022-08-05T17:18:49.241Z,82
2022-08-05T17:19:57.640Z,82
2022-08-05T17:21:00.689Z,82
2022-08-05T17:22:09.761Z,82
2022-08-05T17:24:46.341Z,79
2022-08-05T17:26:38.818Z,80
2022-08-05T17:27:44.868Z,82
2022-08-05T17:28:48.224Z,83
2022-08-05T17:30:03.421Z,84
2022-08-05T17:31:59.325Z,84
2022-08-05T17:33:03.447Z,83
2022-08-05T17:34:32.172Z,83
2022-08-05T17:36:41.144Z,82
2022-08-05T17:37:50.914Z,83
2022-08-05T17:38:59.449Z,83
2022-08-05T17:40:03.939Z,82
2022-08-05T17:42:32.876Z,82
2022-08-05T17:43:56.180Z,84
2022-08-05T17:45:23.280Z,84
2022-08-05T17:46:46.837Z,84
2022-08-05T17:47:57.299Z,84
2022-08-05T17:49:01.325Z,83
2022-08-05T17:50:12.609Z,83
2022-08-05T17:51:23.285Z,82
2022-08-05T17:52:29.082Z,82
2022-08-05T17:53:37.669Z,82
2022-08-05T17:54:43.948Z,82
2022-08-05T17:55:47.142Z,82
2022-08-05T17:56:52.107Z,82
2022-08-05T17:57:54.763Z,80
2022-08-05T17:58:57.112Z,80
2022-08-05T18:00:07.641Z,80
2022-08-05T18:01:11.907Z,81
2022-08-05T18:02:19.517Z,82
2022-08-05T18:04:12.536Z,81
2022-08-05T18:05:38.171Z,82
2022-08-05T18:06:50.637Z,83
2022-08-05T18:08:04.957Z,82
2022-08-05T18:09:15.439Z,82
2022-08-05T18:10:22.481Z,82
2022-08-05T18:11:36.687Z,83
2022-08-05T18:12:41.460Z,83
2022-08-05T18:13:45.688Z,84
2022-08-05T18:14:51.317Z,83
2022-08-05T18:15:55.362Z,83
2022-08-05T18:17:00.861Z,83
2022-08-05T18:18:12.460Z,83
2022-08-05T18:19:15.519Z,83
2022-08-05T18:20:19.006Z,84
2022-08-05T18:22:11.455Z,83
2022-08-05T18:23:47.838Z,83
2022-08-05T18:24:57.161Z,84
2022-08-05T18:26:00.553Z,84
2022-08-05T18:27:04.248Z,84
2022-08-05T18:28:31.662Z,85
2022-08-05T18:29:42.313Z,85
2022-08-05T18:30:57.835Z,85
2022-08-05T18:32:00.394Z,85
2022-08-05T18:33:07.042Z,86
2022-08-05T18:34:15.777Z,86
2022-08-05T18:36:16.396Z,85
2022-08-05T18:37:42.411Z,86
2022-08-05T18:38:45.527Z,85
2022-08-05T18:42:11.948Z,86
2022-08-05T18:43:23.241Z,85
2022-08-05T18:44:57.099Z,86
2022-08-05T18:46:04.716Z,86
2022-08-05T18:47:13.708Z,86
2022-08-05T18:48:34.286Z,85
2022-08-05T18:50:01.299Z,87
2022-08-05T18:52:11.418Z,87
2022-08-05T18:53:28.881Z,86
2022-08-05T18:54:55.392Z,87
2022-08-05T18:56:00.327Z,88
2022-08-05T18:57:02.669Z,87
2022-08-05T18:58:16.659Z,85
2022-08-05T19:00:21.098Z,82
2022-08-05T19:01:59.173Z,85
2022-08-05T19:03:57.722Z,83
2022-08-05T19:06:37.389Z,84
2022-08-05T19:07:50.414Z,83
2022-08-05T19:08:54.411Z,79
2022-08-05T19:09:58.989Z,79
2022-08-05T19:11:08.353Z,80
2022-08-05T19:12:19.639Z,77
2022-08-05T19:13:23.360Z,77
2022-08-05T19:15:04.289Z,79
2022-08-05T19:17:13.328Z,79
2022-08-05T19:18:24.363Z,80
2022-08-05T19:19:32.082Z,80
2022-08-05T19:20:43.608Z,82
2022-08-05T19:21:52.705Z,80
2022-08-05T19:22:57.300Z,79
2022-08-05T19:24:13.484Z,79
2022-08-05T19:25:44.633Z,77
2022-08-05T19:26:58.727Z,76
2022-08-05T19:28:06.646Z,77
2022-08-05T19:29:10.287Z,77
2022-08-05T19:30:14.280Z,77
2022-08-05T19:31:24.383Z,78
2022-08-05T19:32:35.712Z,77
2022-08-05T19:33:57.293Z,78
2022-08-05T19:35:07.352Z,79
2022-08-05T19:36:15.892Z,80
2022-08-05T19:38:06.412Z,77
2022-08-05T19:39:21.885Z,76
2022-08-05T19:40:25.658Z,75
2022-08-05T19:42:15.666Z,79
2022-08-05T19:44:14.760Z,78
2022-08-05T19:45:20.062Z,81
2022-08-05T19:46:40.852Z,81
2022-08-05T19:47:47.981Z,79
2022-08-05T19:49:04.351Z,79
2022-08-05T19:50:13.159Z,79